createdAt,value
2023-02-27T06:02:27.051Z,101297.34
2023-02-27T06:04:55.192Z,101297.56
2023-02-27T06:07:23.453Z,101298.63
2023-02-27T06:09:50.998Z,101295.91
2023-02-27T06:12:18.215Z,101306.44
2023-02-27T06:14:44.790Z,101319.38
2023-02-27T06:17:11.853Z,101321.44
2023-02-27T06:19:38.367Z,101318.81
2023-02-27T06:22:05.488Z,101326.78
2023-02-27T06:24:32.125Z,101325.81
2023-02-27T06:26:59.389Z,101326.50
2023-02-27T06:29:25.974Z,101330.00
2023-02-27T06:31:53.192Z,101336.00
2023-02-27T06:34:19.794Z,101341.13
2023-02-27T06:36:46.920Z,101349.78
2023-02-27T06:39:13.504Z,101354.81
2023-02-27T06:41:40.931Z,101362.75
2023-02-27T06:44:07.591Z,101350.47
2023-02-27T06:46:34.835Z,101360.00
2023-02-27T06:49:01.401Z,101365.16
2023-02-27T06:51:28.221Z,101358.22
2023-02-27T06:53:55.393Z,101363.31
2023-02-27T06:56:21.962Z,101358.13
2023-02-27T06:58:48.889Z,101359.00
2023-02-27T07:01:15.582Z,101370.38
2023-02-27T07:03:42.535Z,101370.44
2023-02-27T07:06:09.433Z,101373.97
2023-02-27T07:08:36.341Z,101382.06
2023-02-27T07:11:02.925Z,101382.31
2023-02-27T07:13:30.091Z,101380.66
2023-02-27T07:15:56.662Z,101381.72
2023-02-27T07:18:25.173Z,101387.19
2023-02-27T07:20:51.923Z,101382.00
2023-02-27T07:23:19.181Z,101394.44
2023-02-27T07:25:47.706Z,101392.00
2023-02-27T07:28:15.401Z,101393.06
2023-02-27T07:30:42.169Z,101400.09
2023-02-27T07:33:09.650Z,101403.63
2023-02-27T07:35:36.155Z,101397.78
2023-02-27T07:38:03.930Z,101398.94
2023-02-27T07:40:30.670Z,101403.47
2023-02-27T07:42:57.831Z,101400.28
2023-02-27T07:45:24.400Z,101389.28
2023-02-27T07:47:51.584Z,101403.66
2023-02-27T07:50:18.203Z,101402.16
2023-02-27T07:52:45.734Z,101402.66
2023-02-27T07:55:13.988Z,101398.59
2023-02-27T07:57:40.528Z,101396.13
2023-02-27T08:00:09.840Z,101401.63
2023-02-27T08:02:39.721Z,101391.47
2023-02-27T08:05:07.707Z,101395.19
2023-02-27T08:07:34.324Z,101394.69
2023-02-27T08:10:01.506Z,101397.47
2023-02-27T08:12:27.986Z,101396.22
2023-02-27T08:14:55.170Z,101387.72
2023-02-27T08:17:21.657Z,101396.66
2023-02-27T08:19:48.777Z,101394.25
2023-02-27T08:22:15.351Z,101384.09
2023-02-27T08:24:42.538Z,101385.19
2023-02-27T08:27:09.090Z,101393.41
2023-02-27T08:29:36.280Z,101389.22
2023-02-27T08:32:03.090Z,101391.97
2023-02-27T08:34:30.676Z,101400.13
2023-02-27T08:36:57.199Z,101398.66
2023-02-27T08:39:27.206Z,101399.63
2023-02-27T08:41:53.639Z,101402.44
2023-02-27T08:44:21.273Z,101403.44
2023-02-27T08:46:48.020Z,101406.19
2023-02-27T08:49:15.181Z,101391.34
2023-02-27T08:51:43.006Z,101395.06
2023-02-27T08:54:10.197Z,101386.50
2023-02-27T08:56:36.877Z,101391.00
2023-02-27T08:59:04.017Z,101390.28
2023-02-27T09:01:34.396Z,101393.13
2023-02-27T09:04:03.983Z,101391.47
2023-02-27T09:06:32.291Z,101397.66
2023-02-27T09:08:59.787Z,101396.03
2023-02-27T09:11:28.427Z,101398.75
2023-02-27T09:13:56.095Z,101394.59
2023-02-27T09:16:23.370Z,101395.53
2023-02-27T09:18:51.222Z,101393.78
2023-02-27T09:21:17.864Z,101395.63
2023-02-27T09:23:45.107Z,101394.84
2023-02-27T09:26:11.772Z,101402.72
2023-02-27T09:28:41.768Z,101401.94
2023-02-27T09:31:08.629Z,101407.25
2023-02-27T09:33:40.044Z,101408.13
2023-02-27T09:36:07.056Z,101413.56
2023-02-27T09:38:35.620Z,101427.56
2023-02-27T09:41:02.368Z,101411.91
2023-02-27T09:43:37.249Z,101421.69
2023-02-27T09:46:06.186Z,101418.41
2023-02-27T09:48:43.238Z,101423.81
2023-02-27T09:51:09.824Z,101417.88
2023-02-27T09:53:42.890Z,101421.56
2023-02-27T09:56:21.300Z,101430.63
2023-02-27T09:59:10.315Z,101427.25
2023-02-27T10:01:39.965Z,101434.34
2023-02-27T10:04:25.780Z,101429.94
2023-02-27T10:06:55.894Z,101420.38
2023-02-27T10:09:46.145Z,101415.19
2023-02-27T10:12:12.591Z,101411.84
2023-02-27T10:14:48.240Z,101409.44
2023-02-27T10:17:30.811Z,101408.72
2023-02-27T10:20:00.643Z,101409.81
2023-02-27T10:22:47.641Z,101399.50
2023-02-27T10:25:30.864Z,101408.47
2023-02-27T10:28:09.224Z,101405.09
2023-02-27T10:30:36.866Z,101398.31
2023-02-27T10:33:18.090Z,101403.69
2023-02-27T10:35:46.338Z,101393.16
2023-02-27T10:38:21.521Z,101397.63
2023-02-27T10:40:49.020Z,101394.25
2023-02-27T10:43:19.032Z,101401.44
2023-02-27T10:45:46.248Z,101400.59
2023-02-27T10:48:14.360Z,101394.47
2023-02-27T10:50:44.427Z,101397.16
2023-02-27T10:53:23.653Z,101383.16
2023-02-27T10:56:08.806Z,101389.38
2023-02-27T10:58:37.125Z,101387.63
2023-02-27T11:01:07.318Z,101388.53
2023-02-27T11:03:38.652Z,101396.47
2023-02-27T11:06:13.067Z,101393.88
2023-02-27T11:08:40.449Z,101385.97
2023-02-27T11:11:10.460Z,101381.59
2023-02-27T11:13:38.599Z,101371.94
2023-02-27T11:16:10.352Z,101378.97
2023-02-27T11:18:41.440Z,101373.69
2023-02-27T11:21:24.237Z,101370.25
2023-02-27T11:23:55.293Z,101379.00
2023-02-27T11:26:35.137Z,101384.22
2023-02-27T11:29:19.133Z,101381.56
2023-02-27T11:31:53.452Z,101370.97
2023-02-27T11:34:22.076Z,101363.06
2023-02-27T11:36:51.967Z,101363.06
2023-02-27T11:39:48.748Z,101366.53
2023-02-27T11:42:32.682Z,101360.38
2023-02-27T11:46:10.997Z,101358.63
2023-02-27T11:48:19.719Z,101352.50
2023-02-27T11:50:47.210Z,101357.78
2023-02-27T11:53:38.002Z,101358.72
2023-02-27T11:56:13.402Z,101350.81
2023-02-27T11:58:45.954Z,101350.91
2023-02-27T12:01:23.659Z,101353.56
2023-02-27T12:04:09.192Z,101351.78
2023-02-27T12:06:44.144Z,101359.66
2023-02-27T12:09:34.316Z,101355.28
2023-02-27T12:12:07.609Z,101348.25
2023-02-27T12:14:50.900Z,101351.78
2023-02-27T12:17:35.105Z,101355.31
2023-02-27T12:20:21.239Z,101350.97
2023-02-27T12:22:52.132Z,101349.22
2023-02-27T12:25:24.716Z,101352.81
2023-02-27T12:27:57.205Z,101346.63
2023-02-27T12:30:31.682Z,101351.94
2023-02-27T12:33:21.249Z,101347.53
2023-02-27T12:35:55.769Z,101345.78
2023-02-27T12:38:24.536Z,101340.50
2023-02-27T12:41:11.288Z,101344.91
2023-02-27T12:43:57.199Z,101348.38
2023-02-27T12:46:57.717Z,101351.88
2023-02-27T12:49:51.967Z,101352.72
2023-02-27T12:52:47.002Z,101354.47
2023-02-27T12:55:46.001Z,101346.59
2023-02-27T12:58:34.792Z,101358.03
2023-02-27T13:01:12.395Z,101348.41
2023-02-27T13:04:24.165Z,101356.34
2023-02-27T13:07:22.270Z,101342.25
2023-02-27T13:10:29.333Z,101351.00
2023-02-27T13:13:16.478Z,101350.97
2023-02-27T13:15:51.717Z,101336.03
2023-02-27T13:18:24.852Z,101343.09
2023-02-27T13:20:56.683Z,101343.97
2023-02-27T13:23:38.484Z,101323.66
2023-02-27T13:26:16.881Z,101336.84
2023-02-27T13:28:44.702Z,101332.41
2023-02-27T13:31:18.999Z,101335.03
2023-02-27T13:33:59.822Z,101327.97
2023-02-27T13:36:41.136Z,101338.53
2023-02-27T13:39:36.165Z,101343.78
2023-02-27T13:42:03.356Z,101331.50
2023-02-27T13:44:36.075Z,101329.75
2023-02-27T13:47:31.194Z,101332.41
2023-02-27T13:50:00.488Z,101319.22
2023-02-27T13:52:30.646Z,101321.91
2023-02-27T13:54:59.868Z,101317.50
2023-02-27T13:57:35.674Z,101313.97
2023-02-27T14:00:21.696Z,101314.88
2023-02-27T14:03:06.881Z,101320.09
2023-02-27T14:05:44.717Z,101313.06
2023-02-27T14:08:23.179Z,101311.28
2023-02-27T14:11:11.517Z,101312.16
2023-02-27T14:13:50.648Z,101313.88
2023-02-27T14:16:42.005Z,101308.59
2023-02-27T14:19:15.405Z,101314.72
2023-02-27T14:21:51.210Z,101328.78
2023-02-27T14:24:20.967Z,101308.53
2023-02-27T14:26:47.716Z,101315.59
2023-02-27T14:29:21.001Z,101324.38
2023-02-27T14:31:48.985Z,101324.34
2023-02-27T14:34:20.094Z,101326.97
2023-02-27T14:36:52.788Z,101332.25
2023-02-27T14:39:27.300Z,101337.44
2023-02-27T14:41:59.757Z,101334.78
2023-02-27T14:44:29.265Z,101346.19
2023-02-27T14:46:58.588Z,101340.03
2023-02-27T14:49:29.784Z,101340.03
2023-02-27T14:51:56.765Z,101327.69
2023-02-27T14:54:27.906Z,101332.16
2023-02-27T14:56:55.903Z,101340.03
2023-02-27T14:59:22.405Z,101336.50
2023-02-27T15:01:49.902Z,101340.06
2023-02-27T15:04:18.888Z,101335.69
2023-02-27T15:06:49.272Z,101339.19
2023-02-27T15:09:56.553Z,101336.50
2023-02-27T15:12:25.401Z,101338.31
2023-02-27T15:14:54.991Z,101345.38
2023-02-27T15:17:29.052Z,101340.94
2023-02-27T15:19:58.547Z,101343.63
2023-02-27T15:22:39.039Z,101343.63
2023-02-27T15:25:07.977Z,101345.41
2023-02-27T15:27:37.777Z,101352.44
2023-02-27T15:30:05.120Z,101350.69
2023-02-27T15:32:41.402Z,101363.00
2023-02-27T15:35:17.187Z,101363.00
2023-02-27T15:37:52.002Z,101355.06
2023-02-27T15:40:25.480Z,101349.78
2023-02-27T15:42:54.612Z,101361.22
2023-02-27T15:45:25.220Z,101355.91
2023-02-27T15:47:52.556Z,101366.44
2023-02-27T15:50:19.111Z,101362.94
2023-02-27T15:53:18.061Z,101362.94
2023-02-27T15:55:50.124Z,101376.13
2023-02-27T15:58:22.408Z,101369.97
2023-02-27T16:01:02.460Z,101370.81
2023-02-27T16:03:38.132Z,101370.81
2023-02-27T16:06:27.063Z,101369.06
2023-02-27T16:08:58.402Z,101369.06
2023-02-27T16:11:28.378Z,101369.94
2023-02-27T16:13:55.604Z,101369.03
2023-02-27T16:16:28.289Z,101369.88
2023-02-27T16:18:58.189Z,101371.66
2023-02-27T16:21:28.770Z,101369.88
2023-02-27T16:24:15.372Z,101368.13
2023-02-27T16:26:42.583Z,101367.25
2023-02-27T16:29:21.492Z,101369.88
2023-02-27T16:31:55.186Z,101368.09
2023-02-27T16:34:45.380Z,101373.38
2023-02-27T16:37:23.723Z,101371.59
2023-02-27T16:39:52.028Z,101365.44
2023-02-27T16:42:19.086Z,101374.19
2023-02-27T16:44:45.658Z,101373.31
2023-02-27T16:47:12.959Z,101377.66
2023-02-27T16:49:40.381Z,101371.47
2023-02-27T16:52:12.043Z,101373.19
2023-02-27T16:54:38.672Z,101368.75
2023-02-27T16:57:05.812Z,101368.72
2023-02-27T16:59:39.753Z,101377.47
2023-02-27T17:02:13.355Z,101375.66
2023-02-27T17:04:43.941Z,101372.13
2023-02-27T17:07:16.013Z,101381.78
2023-02-27T17:09:46.963Z,101383.50
2023-02-27T17:12:14.379Z,101385.19
2023-02-27T17:14:40.978Z,101399.19
2023-02-27T17:17:08.629Z,101404.41
2023-02-27T17:19:35.191Z,101402.63
2023-02-27T17:22:02.462Z,101399.06
2023-02-27T17:24:29.760Z,101398.06
2023-02-27T17:26:57.123Z,101405.06
2023-02-27T17:29:24.113Z,101403.28
2023-02-27T17:31:51.527Z,101407.59
2023-02-27T17:34:18.143Z,101408.47
2023-02-27T17:36:45.360Z,101411.94
2023-02-27T17:39:14.762Z,101418.94
2023-02-27T17:41:42.935Z,101416.25
2023-02-27T17:44:12.743Z,101421.47
2023-02-27T17:46:40.403Z,101422.31
2023-02-27T17:49:07.296Z,101422.25
2023-02-27T17:51:34.483Z,101421.38
2023-02-27T17:54:03.791Z,101422.16
2023-02-27T17:56:31.359Z,101418.63
2023-02-27T17:58:58.608Z,101419.47
2023-02-27T18:01:26.929Z,101426.47
2023-02-27T18:03:54.796Z,101422.91
2023-02-27T18:06:23.466Z,101428.19
2023-02-27T18:08:50.046Z,101421.13
2023-02-27T18:11:20.572Z,101429.91
2023-02-27T18:13:48.061Z,101423.69
2023-02-27T18:16:15.857Z,101428.06
2023-02-27T18:18:43.090Z,101422.81
2023-02-27T18:21:13.487Z,101430.69
2023-02-27T18:23:40.831Z,101429.78
2023-02-27T18:26:12.466Z,101433.25
2023-02-27T18:28:44.125Z,101431.44
2023-02-27T18:31:26.730Z,101434.13
2023-02-27T18:36:58.194Z,101429.63
2023-02-27T18:39:24.847Z,101427.88
2023-02-27T18:41:52.161Z,101435.78
2023-02-27T18:44:19.059Z,101431.34
2023-02-27T18:46:46.375Z,101423.44
2023-02-27T18:49:13.163Z,101429.56
2023-02-27T18:51:40.046Z,101438.31
2023-02-27T18:54:07.029Z,101441.75
2023-02-27T18:56:34.235Z,101445.25
2023-02-27T18:59:05.047Z,101443.44
2023-02-27T19:01:35.572Z,101456.56
2023-02-27T19:04:04.820Z,101445.16
2023-02-27T19:06:42.441Z,101447.75
2023-02-27T19:09:11.950Z,101450.41
2023-02-27T19:11:39.565Z,101459.16
2023-02-27T19:14:08.945Z,101452.19
2023-02-27T19:16:36.249Z,101454.75
2023-02-27T19:19:04.786Z,101453.81
2023-02-27T19:21:33.024Z,101452.84
2023-02-27T19:24:00.200Z,101457.19
2023-02-27T19:26:28.124Z,101455.41
2023-02-27T19:28:55.814Z,101460.63
2023-02-27T19:31:24.738Z,101454.44
2023-02-27T19:33:51.709Z,101449.06
2023-02-27T19:36:22.044Z,101453.44
2023-02-27T19:38:49.152Z,101452.53
2023-02-27T19:41:17.641Z,101448.09
2023-02-27T19:43:44.522Z,101447.09
2023-02-27T19:46:14.497Z,101444.41
2023-02-27T19:48:41.377Z,101434.69
2023-02-27T19:51:11.333Z,101447.78
2023-02-27T19:53:38.604Z,101451.19
2023-02-27T19:56:09.278Z,101451.16
2023-02-27T19:58:36.392Z,101441.47
2023-02-27T20:01:04.378Z,101458.06
2023-02-27T20:03:31.194Z,101458.88
2023-02-27T20:05:58.408Z,101452.72
2023-02-27T20:08:25.093Z,101453.53
2023-02-27T20:11:04.935Z,101459.72
2023-02-27T20:13:31.490Z,101450.94
2023-02-27T20:16:00.424Z,101454.41
2023-02-27T20:18:27.705Z,101456.94
2023-02-27T20:21:09.453Z,101457.91
2023-02-27T20:23:39.707Z,101463.22
2023-02-27T20:26:31.647Z,101461.44
2023-02-27T20:29:01.393Z,101461.50
2023-02-27T20:31:29.038Z,101459.84
2023-02-27T20:33:57.887Z,101462.47
2023-02-27T20:36:24.880Z,101461.56
2023-02-27T20:38:51.639Z,101458.97
2023-02-27T20:41:21.961Z,101465.09
2023-02-27T20:43:49.181Z,101463.34
2023-02-27T20:46:19.922Z,101464.22
2023-02-27T20:48:46.640Z,101463.34
2023-02-27T20:51:14.955Z,101458.25
2023-02-27T20:53:43.771Z,101463.50
2023-02-27T20:56:11.641Z,101473.09
2023-02-27T20:58:39.150Z,101468.69
2023-02-27T21:01:11.155Z,101466.91
2023-02-27T21:03:40.075Z,101470.41
2023-02-27T21:06:09.150Z,101465.00
2023-02-27T21:08:40.724Z,101472.84
2023-02-27T21:11:20.101Z,101484.22
2023-02-27T21:13:47.207Z,101480.63
2023-02-27T21:16:16.301Z,101477.06
2023-02-27T21:18:43.044Z,101483.97
2023-02-27T21:21:19.215Z,101489.16
2023-02-27T21:23:46.136Z,101496.06
2023-02-27T21:26:23.637Z,101489.06
2023-02-27T21:28:55.268Z,101487.16
